createdAt,value
2017-10-12T00:06:52.000Z,1004.802
2017-10-12T00:16:52.000Z,1004.95
2017-10-12T00:26:52.000Z,1005.012
2017-10-12T00:36:52.000Z,1004.969
2017-10-12T00:46:52.000Z,1004.94
2017-10-12T00:56:52.000Z,1004.917
2017-10-12T01:06:52.000Z,1005.015
2017-10-12T01:16:52.000Z,1004.82
2017-10-12T01:26:52.000Z,1004.736
2017-10-12T01:36:52.000Z,1004.769
2017-10-12T01:46:52.000Z,1004.728
2017-10-12T01:56:52.000Z,1004.77
2017-10-12T02:06:52.000Z,1004.79
2017-10-12T02:16:52.000Z,1004.905
2017-10-12T02:26:52.000Z,1004.783
2017-10-12T02:36:52.000Z,1004.987
2017-10-12T02:46:52.000Z,1004.988
2017-10-12T02:56:52.000Z,1005.176
2017-10-12T03:06:52.000Z,1005.245
2017-10-12T03:16:52.000Z,1005.512
2017-10-12T03:26:52.000Z,1005.453
2017-10-12T03:36:52.000Z,1005.388
2017-10-12T03:46:52.000Z,1005.562
2017-10-12T03:56:52.000Z,1005.93
2017-10-12T04:06:53.000Z,1005.994
2017-10-12T04:16:52.000Z,1006.039
2017-10-12T04:26:52.000Z,1006.278
2017-10-12T04:36:52.000Z,1006.329
2017-10-12T04:46:52.000Z,1006.74
2017-10-12T04:56:52.000Z,1006.922
2017-10-12T05:06:52.000Z,1007.122
2017-10-12T05:16:52.000Z,1007.323
2017-10-12T05:26:52.000Z,1007.5
2017-10-12T05:36:52.000Z,1007.784
2017-10-12T05:46:52.000Z,1007.971
2017-10-12T05:56:52.000Z,1008.139
2017-10-12T06:06:52.000Z,1008.357
2017-10-12T06:16:52.000Z,1008.642
2017-10-12T06:26:52.000Z,1008.799
2017-10-12T06:36:53.000Z,1009.013
2017-10-12T06:46:52.000Z,1009.319
2017-10-12T06:56:52.000Z,1009.473
2017-10-12T07:06:53.000Z,1009.723
2017-10-12T07:16:53.000Z,1009.98
2017-10-12T07:26:53.000Z,1010.127
2017-10-12T07:36:53.000Z,1010.279
2017-10-12T07:46:53.000Z,1010.433
2017-10-12T07:56:53.000Z,1010.511
2017-10-12T08:06:53.000Z,1010.732
2017-10-12T08:16:53.000Z,1010.759
2017-10-12T08:26:53.000Z,1010.929
2017-10-12T08:36:53.000Z,1011.173
2017-10-12T08:46:53.000Z,1011.22
2017-10-12T08:56:53.000Z,1011.401
2017-10-12T09:06:53.000Z,1011.697
2017-10-12T09:16:53.000Z,1011.862
2017-10-12T09:26:53.000Z,1011.926
2017-10-12T09:36:53.000Z,1012.063
2017-10-12T09:46:53.000Z,1012.258
2017-10-12T09:56:53.000Z,1012.252
2017-10-12T10:06:54.000Z,1012.534
2017-10-12T10:16:54.000Z,1012.647
2017-10-12T10:26:53.000Z,1012.616
2017-10-12T10:36:53.000Z,1012.934
2017-10-12T10:46:53.000Z,1013.069
2017-10-12T10:56:53.000Z,1013.007
2017-10-12T11:06:53.000Z,1012.996
2017-10-12T11:16:53.000Z,1013.036
2017-10-12T11:26:53.000Z,1013.147
2017-10-12T11:36:53.000Z,1013.026
2017-10-12T11:46:53.000Z,1012.964
2017-10-12T11:56:53.000Z,1013.049
2017-10-12T12:06:53.000Z,1013.281
2017-10-12T12:16:53.000Z,1013.338
2017-10-12T12:26:53.000Z,1013.425
2017-10-12T12:36:53.000Z,1013.563
2017-10-12T12:46:53.000Z,1013.674
2017-10-12T12:56:53.000Z,1013.805
2017-10-12T13:06:53.000Z,1013.889
2017-10-12T13:16:53.000Z,1013.913
2017-10-12T13:26:53.000Z,1013.982
2017-10-12T13:36:53.000Z,1013.955
2017-10-12T13:46:53.000Z,1014.083
2017-10-12T13:56:53.000Z,1014.306
2017-10-12T14:16:53.000Z,1014.207
2017-10-12T14:26:53.000Z,1014.247
2017-10-12T14:36:53.000Z,1014.21
2017-10-12T14:46:53.000Z,1014.278
2017-10-12T14:56:53.000Z,1014.443
2017-10-12T15:06:53.000Z,1014.466
2017-10-12T15:16:53.000Z,1014.722
2017-10-12T15:26:53.000Z,1014.791
2017-10-12T15:36:54.000Z,1014.824
2017-10-12T15:46:54.000Z,1014.985
2017-10-12T15:56:54.000Z,1015.128
2017-10-12T16:06:54.000Z,1015.098
2017-10-12T16:16:54.000Z,1015.186
2017-10-12T16:26:54.000Z,1015.268
2017-10-12T16:36:54.000Z,1015.337
2017-10-12T16:46:54.000Z,1015.347
2017-10-12T16:56:54.000Z,1015.416
2017-10-12T17:06:54.000Z,1015.536
2017-10-12T17:16:54.000Z,1015.546
2017-10-12T17:26:54.000Z,1015.555
2017-10-12T17:36:54.000Z,1015.734
2017-10-12T17:46:54.000Z,1015.671
2017-10-12T17:56:54.000Z,1015.73
2017-10-12T18:06:54.000Z,1015.786
2017-10-12T18:16:56.000Z,1015.86
2017-10-12T18:26:54.000Z,1015.922
2017-10-12T18:36:55.000Z,1016.031
2017-10-12T18:46:54.000Z,1015.985
2017-10-12T18:56:54.000Z,1015.967
2017-10-12T19:06:54.000Z,1016.059
2017-10-12T19:16:54.000Z,1016.092
2017-10-12T19:26:54.000Z,1016.187
2017-10-12T19:36:56.000Z,1016.216
2017-10-12T19:46:54.000Z,1016.348
2017-10-12T19:56:54.000Z,1016.328
2017-10-12T20:06:54.000Z,1016.282
2017-10-12T20:16:54.000Z,1016.313
2017-10-12T20:26:54.000Z,1016.353
2017-10-12T20:36:54.000Z,1016.443
2017-10-12T20:46:54.000Z,1016.457
2017-10-12T20:56:54.000Z,1016.481
2017-10-12T21:06:54.000Z,1016.415
2017-10-12T21:16:54.000Z,1016.395
2017-10-12T21:26:54.000Z,1016.4
2017-10-12T21:36:54.000Z,1016.159
2017-10-12T21:46:54.000Z,1016.209
2017-10-12T21:56:54.000Z,1016.237
2017-10-12T22:06:54.000Z,1016.238
2017-10-12T22:16:54.000Z,1016.189
2017-10-12T22:26:54.000Z,1016.206
2017-10-12T22:36:54.000Z,1016.18
2017-10-12T22:46:54.000Z,1016.191
2017-10-12T22:56:54.000Z,1016.143
2017-10-12T23:06:54.000Z,1016.04
2017-10-12T23:16:55.000Z,1015.956
2017-10-12T23:26:54.000Z,1015.97
2017-10-12T23:36:54.000Z,1015.953
2017-10-12T23:46:54.000Z,1016.031
2017-10-12T23:56:54.000Z,1016.087
